Observations de surface / UK / EGUB

Québec | Canada | États-Unis | France | UK | Europe | Ailleurs

Affichage: Infos & localisation pour EGUB | Aide pour décoder les METARs

EGUB BENSON RAF -- UK
Raw surface observations for station EGUB
EGUB 211650Z AUTO 11002KT 9999 // NCD M03/M06 Q1025=
EGUB 211550Z 13004KT CAVOK 02/M05 Q1025 BLU NOSIG=
EGUB 211450Z 12008KT CAVOK 04/M06 Q1025 BLU NOSIG=
EGUB 211350Z 12007KT 9999 FEW020 04/M05 Q1025 BLU NOSIG=
EGUB 211250Z 02005KT 8000 HZ FEW020 03/00 Q1026 BLU TEMPO 6000 SCT020 WHT=
EGUB 211150Z 01003KT 9999 FEW020 01/00 Q1027 BLU TEMPO 6000 BR SCT018 WHT=
EGUB 211050Z 04005KT 9999 FEW019 01/M01 Q1028 BLU TEMPO 6000 BR SCT014 GRN=
EGUB 210950Z 03001KT 7000 BR FEW080 M00/M01 Q1028 WHT BECMG 8000 HZ BLU=
EGUB 210850Z 34004KT 5000 BR SKC M03/M03 Q1028 WHT BECMG 8000 BLU=
EGUB 210750Z 36004KT 5000 BR SKC M03/M04 Q1028 WHT BECMG 8000 BLU=
EGUB 210650Z 03004KT 5000 BR SKC M04/M04 Q1028 WHT=
EGUB 210550Z 02005KT 6000 BR SKC M05/M05 Q1028 WHT=
EGUB 210450Z 05004KT 7000 HZ SKC M06/M07 Q1029 WHT=
EGUB 210350Z 02006KT 6000 BR SKC M03/M03 Q1029 WHT=
EGUB 210250Z 02004KT 6000 BR SKC M03/M03 Q1029 WHT=
EGUB 210150Z 02006KT 7000 BR SKC M02/M03 Q1030 WHT=
EGUB 210050Z AUTO 02005KT 9000 // NCD M02/M03 Q1030=
EGUB 202350Z AUTO 33003KT 9999 // NCD M02/M03 Q1030=
EGUB 202250Z AUTO 33003KT 9999 // NCD M01/M02 Q1031=
EGUB 202150Z 05004KT CAVOK M00/M02 Q1031 BLU=
EGUB 202050Z 06004KT CAVOK M02/M03 Q1031 BLU=
EGUB 201950Z 05009KT CAVOK 02/M02 Q1031 BLU=
EGUB 201850Z AUTO 05008KT 9999 // NCD 01/M02 Q1031=
EGUB 201750Z AUTO 04008KT 9999 // NCD 01/M01 Q1031=